Time;durP1;ratioP1;P1;durP2;ratioP2;P2;SDS_P1;SDS_P2;PMS_P1;PMS_P2;Temp;Humidity;BMP_temperature;BMP_pressure;BME280_temperature;BME280_humidity;BME280_pressure;Samples;Min_cycle;Max_cycle;Signal;HPM_P1;HPM_P2
2021/06/25 00:00:37;;;;;;;21.90;6.18;;;;;;;;;;5034563;28;20029;-66
2021/06/25 00:03:04;;;;;;;22.30;6.18;;;;;;;;;;5034386;28;20521;-66
2021/06/25 00:05:30;;;;;;;21.33;6.30;;;;;;;;;;5034241;28;20051;-66
2021/06/25 00:07:55;;;;;;;17.75;6.60;;;27.50;68.40;;;;;;5034333;28;20030;-66
2021/06/25 00:10:21;;;;;;;23.88;6.18;;;27.40;69.10;;;;;;5034146;28;20040;-66
2021/06/25 00:12:47;;;;;;;26.95;6.25;;;27.40;69.10;;;;;;5033983;28;20097;-66
2021/06/25 00:15:13;;;;;;;20.90;6.50;;;;;;;;;;5034088;28;20075;-66
2021/06/25 00:17:40;;;;;;;25.95;6.38;;;;;;;;;;5034326;28;20103;-66
2021/06/25 00:20:07;;;;;;;20.17;6.80;;;;;;;;;;5034288;28;20057;-66
2021/06/25 00:22:33;;;;;;;21.85;6.32;;;;;;;;;;5034091;28;20025;-66
2021/06/25 00:24:59;;;;;;;21.83;6.50;;;;;;;;;;5034085;28;20560;-66
2021/06/25 00:27:25;;;;;;;27.10;7.07;;;;;;;;;;5033944;28;20025;-66
2021/06/25 00:29:52;;;;;;;25.38;6.75;;;;;;;;;;5034066;28;20519;-66
2021/06/25 00:32:18;;;;;;;19.50;5.50;;;;;;;;;;5033694;28;20104;-66
2021/06/25 00:34:44;;;;;;;23.17;4.40;;;;;;;;;;5033974;28;20025;-66
2021/06/25 00:37:10;;;;;;;16.73;3.80;;;;;;;;;;5033006;28;20052;-66
2021/06/25 00:39:36;;;;;;;17.80;4.18;;;;;;;;;;5033913;28;20026;-66
2021/06/25 00:42:03;;;;;;;17.38;4.18;;;;;;;;;;5033591;28;20021;-66
2021/06/25 00:44:29;;;;;;;20.45;4.25;;;;;;;;;;5033700;28;20042;-70
2021/06/25 00:46:55;;;;;;;17.20;4.63;;;;;;;;;;5033667;28;20033;-66
2021/06/25 00:49:21;;;;;;;14.60;3.50;;;;;;;;;;5033559;28;20025;-66
2021/06/25 00:51:47;;;;;;;15.48;4.10;;;;;;;;;;5032041;28;20030;-66
2021/06/25 00:54:14;;;;;;;19.40;4.13;;;;;;;;;;5033650;28;20056;-69
2021/06/25 00:56:41;;;;;;;20.50;3.95;;;;;;;;;;5033469;28;20025;-66
2021/06/25 00:59:07;;;;;;;11.68;4.68;;;;;;;;;;5030897;28;20406;-66
2021/06/25 01:01:33;;;;;;;13.88;5.68;;;;;;;;;;5030604;28;20154;-66
2021/06/25 01:03:59;;;;;;;20.42;5.68;;;;;;;;;;5031063;28;20025;-67
2021/06/25 01:06:28;;;;;;;18.65;6.22;;;;;;;;;;5032985;28;20029;-66
2021/06/25 01:08:54;;;;;;;25.20;6.82;;;27.40;69.20;;;;;;5033287;28;20026;-65
2021/06/25 01:11:20;;;;;;;18.58;6.55;;;27.00;67.00;;;;;;5033102;28;20032;-66
2021/06/25 01:13:46;;;;;;;24.85;6.80;;;26.90;67.50;;;;;;5033064;28;20029;-67
2021/06/25 01:16:14;;;;;;;24.42;5.97;;;;;;;;;;5032963;28;20022;-66
2021/06/25 01:18:40;;;;;;;18.50;6.30;;;;;;;;;;5033150;28;20029;-66
2021/06/25 01:21:06;;;;;;;14.50;5.63;;;26.90;67.80;;;;;;5032763;28;20032;-66
2021/06/25 01:23:40;;;;;;;21.98;5.93;;;26.80;68.40;;;;;;5033301;28;20040;-66
2021/06/25 01:26:06;;;;;;;24.58;6.88;;;;;;;;;;5032818;28;20038;-66
2021/06/25 01:28:32;;;;;;;13.18;6.20;;;;;;;;;;5033116;28;20072;-66
2021/06/25 01:30:58;;;;;;;18.55;6.50;;;;;;;;;;5033500;28;20060;-70
2021/06/25 01:33:24;;;;;;;19.50;6.50;;;;;;;;;;5032750;28;20026;-66
2021/06/25 01:35:53;;;;;;;27.05;6.50;;;;;;;;;;5032649;28;20396;-66
2021/06/25 01:38:19;;;;;;;15.68;5.95;;;;;;;;;;5032959;28;20100;-65
2021/06/25 01:40:45;;;;;;;19.58;6.00;;;;;;;;;;5032675;28;20496;-66
2021/06/25 01:43:12;;;;;;;14.57;5.68;;;;;;;;;;5032671;28;20071;-66
2021/06/25 01:45:39;;;;;;;18.80;5.88;;;;;;;;;;5032862;28;20160;-66
2021/06/25 01:48:05;;;;;;;15.65;5.45;;;;;;;;;;5034979;28;20033;-66
2021/06/25 01:50:37;;;;;;;20.92;5.80;;;;;;;;;;5036711;28;20462;-66
2021/06/25 01:53:04;;;;;;;18.80;6.15;;;;;;;;;;5036800;28;20022;-65
2021/06/25 01:55:40;;;;;;;21.00;6.07;;;;;;;;;;5036692;28;20030;-65
2021/06/25 01:58:14;;;;;;;17.33;5.38;;;;;;;;;;5036537;28;20063;-66
2021/06/25 02:00:42;;;;;;;14.90;5.78;;;;;;;;;;5036705;28;20029;-66
2021/06/25 02:03:08;;;;;;;21.98;5.35;;;;;;;;;;5036647;28;20083;-67
2021/06/25 02:05:34;;;;;;;13.75;5.97;;;;;;;;;;5036669;28;20033;-66
2021/06/25 02:08:00;;;;;;;17.27;5.28;;;;;;;;;;5037612;28;20466;-65
2021/06/25 02:10:26;;;;;;;18.55;5.65;;;;;;;;;;5036574;28;20037;-65
2021/06/25 02:12:52;;;;;;;15.98;5.30;;;;;;;;;;5036378;28;20023;-69
2021/06/25 02:15:19;;;;;;;16.50;5.55;;;;;;;;;;5036451;28;20025;-66
2021/06/25 02:17:45;;;;;;;17.50;5.45;;;;;;;;;;5036506;28;20109;-66
2021/06/25 02:20:11;;;;;;;14.25;5.80;;;;;;;;;;5036213;28;20029;-65
2021/06/25 02:22:38;;;;;;;17.05;5.45;;;;;;;;;;5036512;28;20109;-66
2021/06/25 02:25:06;;;;;;;20.17;5.75;;;;;;;;;;5036181;28;20026;-66
2021/06/25 02:27:32;;;;;;;17.58;5.82;;;;;;;;;;5036603;28;20078;-65
2021/06/25 02:29:58;;;;;;;11.80;5.35;;;26.70;67.90;;;;;;5036392;28;20418;-65
2021/06/25 02:32:24;;;;;;;21.00;6.00;;;;;;;;;;5036215;28;20033;-69
2021/06/25 02:34:50;;;;;;;15.18;5.60;;;;;;;;;;5035973;28;20136;-66
2021/06/25 02:37:16;;;;;;;15.68;5.55;;;25.70;68.60;;;;;;5036208;28;20024;-66
2021/06/25 02:39:42;;;;;;;18.83;5.72;;;;;;;;;;5035876;28;20021;-66
2021/06/25 02:42:08;;;;;;;16.08;5.75;;;25.50;69.40;;;;;;5035729;28;20029;-66
2021/06/25 02:44:34;;;;;;;14.43;5.88;;;;;;;;;;5035554;28;20044;-66
2021/06/25 02:47:00;;;;;;;14.40;5.35;;;;;;;;;;5035818;28;20022;-66
2021/06/25 02:49:26;;;;;;;22.13;6.63;;;;;;;;;;5035820;28;20022;-66
2021/06/25 02:51:52;;;;;;;15.90;5.25;;;;;;;;;;5035765;28;20060;-67
2021/06/25 02:54:18;;;;;;;14.13;6.20;;;;;;;;;;5035804;28;20018;-66
2021/06/25 02:56:44;;;;;;;13.48;5.90;;;;;;;;;;5035962;28;20033;-65
2021/06/25 02:59:10;;;;;;;13.80;5.65;;;;;;;;;;5034849;28;20083;-65
2021/06/25 03:01:36;;;;;;;15.55;5.95;;;;;;;;;;5035527;28;20018;-66
2021/06/25 03:04:02;;;;;;;15.88;5.55;;;;;;;;;;5035393;28;20026;-66
2021/06/25 03:06:28;;;;;;;19.27;5.68;;;;;;;;;;5035545;28;20037;-66
2021/06/25 03:08:54;;;;;;;13.55;4.57;;;;;;;;;;5035539;28;20032;-66
2021/06/25 03:11:21;;;;;;;16.00;4.65;;;;;;;;;;5035312;28;20080;-66
2021/06/25 03:13:47;;;;;;;17.20;4.45;;;;;;;;;;5035598;28;20021;-70
2021/06/25 03:16:13;;;;;;;15.05;4.80;;;;;;;;;;5035354;28;20030;-66
2021/06/25 03:18:39;;;;;;;16.90;4.47;;;;;;;;;;5035234;28;20108;-66
2021/06/25 03:21:05;;;;;;;18.55;4.53;;;;;;;;;;5035175;28;20029;-70
2021/06/25 03:23:31;;;;;;;16.17;3.90;;;;;;;;;;5035397;28;20025;-65
2021/06/25 03:25:57;;;;;;;11.60;5.20;;;;;;;;;;5035257;28;20048;-65
2021/06/25 03:28:23;;;;;;;13.27;3.97;;;;;;;;;;5035031;28;20021;-69
2021/06/25 03:30:49;;;;;;;19.33;4.45;;;;;;;;;;5035320;28;20533;-66
2021/06/25 03:33:15;;;;;;;9.95;3.97;;;;;;;;;;5035109;28;20056;-70
2021/06/25 03:35:42;;;;;;;7.22;3.13;;;;;;;;;;5035037;28;20021;-66
2021/06/25 03:38:08;;;;;;;12.05;3.47;;;;;;;;;;5035138;28;20025;-65
2021/06/25 03:40:35;;;;;;;6.88;3.10;;;;;;;;;;5034692;28;20029;-65
2021/06/25 03:43:01;;;;;;;13.57;3.00;;;;;;;;;;5034663;28;20053;-66
2021/06/25 03:45:27;;;;;;;14.25;3.50;;;;;;;;;;5034998;28;20047;-66
2021/06/25 03:47:54;;;;;;;13.48;3.70;;;;;;;;;;5034754;28;20101;-66
2021/06/25 03:50:20;;;;;;;18.30;3.60;;;;;;;;;;5034544;28;20079;-66
2021/06/25 03:52:46;;;;;;;15.43;3.92;;;;;;;;;;5034398;28;20108;-67
2021/06/25 03:55:12;;;;;;;13.93;3.90;;;;;;;;;;5034601;28;20105;-66
2021/06/25 03:57:39;;;;;;;12.15;3.50;;;;;;;;;;5034507;28;20045;-66
2021/06/25 04:00:08;;;;;;;8.35;2.92;;;;;;;;;;5034408;28;20077;-66
2021/06/25 04:02:34;;;;;;;10.45;2.97;;;;;;;;;;5034470;28;20025;-66
2021/06/25 04:05:00;;;;;;;11.35;2.97;;;;;;;;;;5034096;28;20108;-65
2021/06/25 04:07:27;;;;;;;12.70;3.33;;;;;;;;;;5034496;28;20069;-65
2021/06/25 04:09:53;;;;;;;12.27;3.63;;;;;;;;;;5034289;28;20033;-65
2021/06/25 04:12:19;;;;;;;8.20;3.67;;;;;;;;;;5034076;28;20021;-65
2021/06/25 04:14:45;;;;;;;10.77;3.65;;;;;;;;;;5034400;28;20021;-66
2021/06/25 04:17:11;;;;;;;14.00;4.45;;;;;;;;;;5034167;28;20374;-65
2021/06/25 04:19:37;;;;;;;15.88;3.83;;;;;;;;;;5033972;28;20096;-65
2021/06/25 04:22:04;;;;;;;10.15;3.97;;;;;;;;;;5034036;28;20035;-65
2021/06/25 04:24:30;;;;;;;12.60;3.78;;;;;;;;;;5034010;28;20061;-66
2021/06/25 04:26:56;;;;;;;11.88;4.18;;;;;;;;;;5034226;28;20053;-66
2021/06/25 04:29:22;;;;;;;15.35;4.28;;;;;;;;;;5033953;28;20029;-66
2021/06/25 04:31:52;;;;;;;13.43;4.22;;;;;;;;;;5033676;28;20068;-69
2021/06/25 04:34:19;;;;;;;9.02;3.75;;;;;;;;;;5034134;28;20057;-67
2021/06/25 04:36:45;;;;;;;9.32;3.28;;;;;;;;;;5033851;28;20021;-69
2021/06/25 04:39:11;;;;;;;10.15;3.92;;;;;;;;;;5033687;28;20501;-68
2021/06/25 04:41:37;;;;;;;10.07;3.42;;;;;;;;;;5033490;28;20022;-67
2021/06/25 04:44:03;;;;;;;12.43;3.50;;;;;;;;;;5033565;28;20049;-67
2021/06/25 04:46:29;;;;;;;10.07;3.33;;;;;;;;;;5033825;28;20405;-67
2021/06/25 04:48:56;;;;;;;8.93;3.35;;;;;;;;;;5033748;28;20486;-67
2021/06/25 04:51:22;;;;;;;7.55;3.22;;;;;;;;;;5033556;28;20104;-67
2021/06/25 04:53:48;;;;;;;12.30;3.45;;;;;;;;;;5033526;28;20029;-67
2021/06/25 04:56:14;;;;;;;10.93;3.20;;;;;;;;;;5033705;28;20488;-67
2021/06/25 04:58:40;;;;;;;15.77;3.70;;;;;;;;;;5033412;28;20075;-67
2021/06/25 05:01:06;;;;;;;10.65;3.00;;;;;;;;;;5033295;28;20029;-67
2021/06/25 05:03:33;;;;;;;15.55;3.38;;;;;;;;;;5033199;28;20030;-67
2021/06/25 05:05:59;;;;;;;7.93;2.80;;;;;;;;;;5033151;28;20038;-67
2021/06/25 05:08:25;;;;;;;15.88;3.03;;;;;;;;;;5033018;28;20029;-66
2021/06/25 05:10:51;;;;;;;14.35;3.20;;;;;;;;;;5033458;28;20028;-66
2021/06/25 05:13:17;;;;;;;12.18;3.28;;;;;;;;;;5033047;28;20025;-69
2021/06/25 05:15:43;;;;;;;12.65;3.38;;;;;;;;;;5033008;28;20109;-66
2021/06/25 05:18:13;;;;;;;11.98;3.40;;;;;;;;;;5033127;28;20057;-66
2021/06/25 05:20:40;;;;;;;10.75;3.17;;;;;;;;;;5033047;28;20029;-66
2021/06/25 05:23:06;;;;;;;8.38;3.05;;;;;;;;;;5032553;28;20029;-66
2021/06/25 05:25:32;;;;;;;8.07;2.85;;;;;;;;;;5031449;28;20033;-66
2021/06/25 05:27:58;;;;;;;10.55;3.10;;;;;;;;;;5030441;28;20068;-67
2021/06/25 05:30:24;;;;;;;14.82;3.08;;;;;;;;;;5030559;28;20057;-66
2021/06/25 05:32:50;;;;;;;10.70;3.03;;;;;;;;;;5032269;28;20026;-66
2021/06/25 05:35:16;;;;;;;10.85;2.70;;;;;;;;;;5032869;28;20025;-66
2021/06/25 05:37:42;;;;;;;10.82;2.42;;;;;;;;;;5033165;28;20052;-66
2021/06/25 05:40:08;;;;;;;15.93;2.53;;;;;;;;;;5033055;28;20053;-66
2021/06/25 05:42:35;;;;;;;15.45;2.47;;;;;;;;;;5031665;28;20065;-66
2021/06/25 05:45:01;;;;;;;10.60;2.40;;;;;;;;;;5032811;28;20034;-66
2021/06/25 05:47:27;;;;;;;9.65;2.10;;;;;;;;;;5032757;28;20034;-66
2021/06/25 05:49:53;;;;;;;8.93;2.30;;;;;;;;;;5032985;28;20017;-66
2021/06/25 05:52:19;;;;;;;10.35;1.90;;;;;;;;;;5032977;28;20036;-67
2021/06/25 05:54:45;;;;;;;7.93;2.05;;;;;;;;;;5031625;28;20071;-66
2021/06/25 05:57:11;;;;;;;11.93;2.30;;;;;;;;;;5032857;28;20030;-66
2021/06/25 05:59:37;;;;;;;7.78;2.00;;;;;;;;;;5032646;28;20037;-67
2021/06/25 06:02:03;;;;;;;10.80;2.42;;;;;;;;;;5032921;28;20444;-67
2021/06/25 06:04:29;;;;;;;9.85;2.10;;;;;;;;;;5032972;28;20513;-66
2021/06/25 06:06:55;;;;;;;8.27;2.08;;;;;;;;;;5033160;28;20029;-66
2021/06/25 06:09:22;;;;;;;9.93;2.25;;;;;;;;;;5032579;28;20544;-66
2021/06/25 06:11:48;;;;;;;4.88;1.90;;;;;;;;;;5032820;28;20037;-66
2021/06/25 06:14:14;;;;;;;12.10;1.95;;;;;;;;;;5032745;28;20033;-66
2021/06/25 06:16:40;;;;;;;9.68;1.90;;;;;;;;;;5032882;28;20022;-66
2021/06/25 06:19:07;;;;;;;7.40;1.80;;;;;;;;;;5032868;28;20036;-71
2021/06/25 06:32:42;;;;;;;6.38;1.85;;;;;;;;;;5032952;28;20039;-71
2021/06/25 06:35:08;;;;;;;6.22;1.75;;;;;;;;;;5034749;28;20029;-66
2021/06/25 06:37:34;;;;;;;9.95;1.90;;;;;;;;;;5036188;28;20053;-66
2021/06/25 06:40:01;;;;;;;6.70;1.35;;;;;;;;;;5036137;28;20057;-66
2021/06/25 06:42:27;;;;;;;14.48;2.22;;;;;;;;;;5047233;22;20041;-71
2021/06/25 06:44:53;;;;;;;4.05;1.35;;;;;;;;;;5016081;28;20403;-69
2021/06/25 06:47:19;;;;;;;4.38;1.20;;;;;;;;;;5016270;28;20037;-68
2021/06/25 06:49:45;;;;;;;8.63;1.50;;;;;;;;;;5016097;28;20076;-67
2021/06/25 06:52:11;;;;;;;3.63;1.10;;;;;;;;;;5015754;28;20040;-67
2021/06/25 06:54:37;;;;;;;5.45;1.35;;;;;;;;;;5016226;28;20465;-67
2021/06/25 06:57:03;;;;;;;7.40;1.20;;;;;;;;;;5014779;28;20057;-67
2021/06/25 06:59:29;;;;;;;3.08;1.20;;;;;;;;;;5015984;28;20029;-66
2021/06/25 07:01:55;;;;;;;5.35;1.30;;;;;;;;;;5015939;28;20505;-66
2021/06/25 07:04:21;;;;;;;5.07;1.00;;;;;;;;;;5015964;28;20022;-66
2021/06/25 07:06:48;;;;;;;14.82;1.52;;;;;;;;;;5014505;28;20042;-67
2021/06/25 07:09:14;;;;;;;4.95;1.02;;;;;;;;;;5015844;28;20026;-66
2021/06/25 07:11:40;;;;;;;4.00;1.38;;;;;;;;;;5015743;28;20075;-66
2021/06/25 07:14:06;;;;;;;3.10;1.10;;;;;;;;;;5015544;28;20045;-67
2021/06/25 07:16:32;;;;;;;6.50;1.55;;;;;;;;;;5015682;28;20026;-67
2021/06/25 07:18:58;;;;;;;3.78;1.10;;;;;;;;;;5015642;28;20030;-66
2021/06/25 07:21:24;;;;;;;8.13;1.08;;;;;;;;;;5015637;28;20037;-66
2021/06/25 07:23:50;;;;;;;4.28;0.90;;;;;;;;;;5015213;28;20030;-67
2021/06/25 07:26:17;;;;;;;12.88;1.20;;;;;;;;;;5015339;28;20045;-67
2021/06/25 07:28:43;;;;;;;19.88;2.35;;;;;;;;;;5015458;28;20053;-67
2021/06/25 07:31:09;;;;;;;15.57;2.03;;;;;;;;;;5015320;28;20038;-67
2021/06/25 07:33:35;;;;;;;5.78;0.93;;;;;;;;;;5015383;28;20045;-66
2021/06/25 07:36:01;;;;;;;9.13;1.30;;;;;;;;;;5015016;28;20030;-67
2021/06/25 07:38:27;;;;;;;4.13;1.00;;;;;;;;;;5013952;28;20018;-67
2021/06/25 07:40:53;;;;;;;3.88;1.05;;;;;;;;;;5015263;28;20371;-67
2021/06/25 07:43:20;;;;;;;6.47;0.90;;;;;;;;;;5014875;28;20413;-67
2021/06/25 07:45:46;;;;;;;4.00;1.10;;;;;;;;;;5014732;28;20034;-67
2021/06/25 07:48:12;;;;;;;3.45;1.35;;;;;;;;;;5015185;28;20025;-66
2021/06/25 07:50:38;;;;;;;6.07;1.10;;;;;;;;;;5014982;28;20033;-67
2021/06/25 07:53:07;;;;;;;13.35;1.20;;;;;;;;;;5014932;28;20036;-66
2021/06/25 07:55:33;;;;;;;2.22;0.70;;;;;;;;;;5014770;28;20026;-66
2021/06/25 07:57:59;;;;;;;4.45;0.90;;;;;;;;;;5015029;28;20026;-66
2021/06/25 08:00:25;;;;;;;4.32;1.00;;;;;;;;;;5014860;28;20104;-68
2021/06/25 08:02:51;;;;;;;6.45;1.10;;;;;;;;;;5014656;28;20030;-68
2021/06/25 08:05:17;;;;;;;4.30;0.88;;;;;;;;;;5014346;28;20100;-68
2021/06/25 08:07:43;;;;;;;3.97;0.80;;;;;;;;;;5014525;28;20030;-68
2021/06/25 08:10:09;;;;;;;2.95;0.82;;;;;;;;;;5014323;28;20033;-67
2021/06/25 08:12:35;;;;;;;5.43;1.00;;;;;;;;;;5014379;28;20447;-67
2021/06/25 08:15:01;;;;;;;6.30;0.95;;;;;;;;;;5014481;28;20026;-67
2021/06/25 08:17:27;;;;;;;4.15;0.82;;;;;;;;;;5014701;28;20402;-67
2021/06/25 08:19:54;;;;;;;6.95;0.90;;;;;;;;;;5014469;28;20022;-67
2021/06/25 08:22:20;;;;;;;5.38;0.90;;;;;;;;;;5014458;28;20409;-67
2021/06/25 08:24:47;;;;;;;6.43;0.80;;;;;;;;;;5014282;28;20021;-67
2021/06/25 08:27:13;;;;;;;3.13;0.68;;;;;;;;;;5013071;28;20435;-67
2021/06/25 08:29:39;;;;;;;5.85;0.98;;;;;;;;;;5014350;28;20534;-67
2021/06/25 08:32:06;;;;;;;3.72;0.95;;;;;;;;;;5014059;28;20034;-67
2021/06/25 08:34:32;;;;;;;1.85;0.85;;;;;;;;;;5014035;28;20018;-67
2021/06/25 08:36:58;;;;;;;2.30;0.60;;;;;;;;;;5014210;28;20542;-67
2021/06/25 08:39:26;;;;;;;3.40;1.00;;;;;;;;;;5014065;28;20026;-67
2021/06/25 08:41:53;;;;;;;1.58;0.63;;;;;;;;;;5014247;28;20459;-67
2021/06/25 08:44:19;;;;;;;6.38;0.85;;;;;;;;;;5013859;28;20125;-67
2021/06/25 08:46:46;;;;;;;6.20;0.90;;;;;;;;;;5013721;28;20113;-67
2021/06/25 08:49:13;;;;;;;3.90;0.93;;;;;;;;;;5014067;28;20021;-67
2021/06/25 08:51:39;;;;;;;3.35;0.80;;;;;;;;;;5013955;28;20080;-67
2021/06/25 08:54:06;;;;;;;2.28;0.63;;;;;;;;;;5013840;28;20026;-67
2021/06/25 08:56:32;;;;;;;2.10;0.85;;;;;;;;;;5013117;28;20022;-67
2021/06/25 08:59:00;;;;;;;5.30;0.60;;;;;;;;;;5013974;28;20021;-68
2021/06/25 09:01:27;;;;;;;1.70;0.65;;;;;;;;;;5013980;28;20029;-68
2021/06/25 09:03:54;;;;;;;4.82;0.70;;;;;;;;;;5013611;28;20042;-68
2021/06/25 09:06:20;;;;;;;1.50;0.57;;;25.50;69.10;;;;;;5013370;28;20040;-68
2021/06/25 09:08:47;;;;;;;7.10;1.00;;;;;;;;;;5013593;28;20148;-68
2021/06/25 09:11:18;;;;;;;7.07;0.85;;;;;;;;;;5013592;28;20033;-68
2021/06/25 09:13:44;;;;;;;7.70;0.90;;;;;;;;;;5013483;28;20018;-68
2021/06/25 09:16:23;;;;;;;2.08;0.43;;;;;;;;;;5013535;28;20293;-68
2021/06/25 09:18:55;;;;;;;5.10;1.00;;;;;;;;;;5013551;28;20025;-67
2021/06/25 09:21:21;;;;;;;2.05;0.55;;;;;;;;;;5013624;28;20030;-67
2021/06/25 09:23:47;;;;;;;5.35;0.60;;;;;;;;;;5013411;28;20022;-68
2021/06/25 09:26:15;;;;;;;7.22;0.90;;;;;;;;;;5013447;28;20042;-68
2021/06/25 09:28:41;;;;;;;3.65;0.60;;;;;;;;;;5013623;28;20025;-67
2021/06/25 09:31:14;;;;;;;8.45;0.80;;;;;;;;;;5013508;28;20437;-68
2021/06/25 09:33:44;;;;;;;3.95;0.73;;;;;;;;;;5013280;28;20029;-68
2021/06/25 09:36:21;;;;;;;1.33;0.52;;;;;;;;;;5013433;28;20084;-68
2021/06/25 09:38:47;;;;;;;2.78;0.70;;;;;;;;;;5013568;28;20018;-68
2021/06/25 09:41:19;;;;;;;2.60;0.70;;;;;;;;;;5013379;28;20536;-68
2021/06/25 09:43:57;;;;;;;5.43;1.23;;;;;;;;;;5012706;28;20088;-68
2021/06/25 09:46:29;;;;;;;3.50;0.75;;;;;;;;;;5012982;28;20047;-68
2021/06/25 09:48:57;;;;;;;6.35;0.80;;;;;;;;;;5013353;28;20069;-68
2021/06/25 09:51:24;;;;;;;5.70;0.73;;;;;;;;;;5013429;28;20049;-67
2021/06/25 09:54:02;;;;;;;2.75;0.70;;;;;;;;;;5013126;28;20025;-68
2021/06/25 09:56:28;;;;;;;4.75;0.82;;;;;;;;;;5013504;28;20110;-68
2021/06/25 09:59:21;;;;;;;6.32;0.95;;;;;;;;;;5013393;28;20061;-68
2021/06/25 10:01:47;;;;;;;3.22;0.80;;;;;;;;;;5013130;28;20061;-68
2021/06/25 10:04:13;;;;;;;5.28;0.93;;;;;;;;;;5013058;28;20026;-67
2021/06/25 10:06:39;;;;;;;6.60;0.88;;;;;;;;;;5013051;28;20486;-68
2021/06/25 10:09:06;;;;;;;6.82;0.80;;;;;;;;;;5015518;28;20030;-68
2021/06/25 10:11:33;;;;;;;4.20;0.80;;;;;;;;;;5016956;28;20049;-68
2021/06/25 10:14:00;;;;;;;2.30;0.80;;;;;;;;;;5016954;28;20056;-67
2021/06/25 10:16:26;;;;;;;4.95;0.85;;;;;;;;;;5017044;28;20120;-68
2021/06/25 10:18:54;;;;;;;5.72;1.08;;;;;;;;;;5016853;28;20101;-68
2021/06/25 10:21:21;;;;;;;5.45;0.80;;;;;;;;;;5016671;28;20478;-68
2021/06/25 10:23:48;;;;;;;4.10;0.93;;;;;;;;;;5016545;28;20030;-68
2021/06/25 10:26:14;;;;;;;4.68;1.00;;;;;;;;;;5016752;28;20076;-67
2021/06/25 10:28:42;;;;;;;2.30;0.77;;;;;;;;;;5016791;28;20052;-67
2021/06/25 10:31:09;;;;;;;2.67;0.80;;;;;;;;;;5016581;28;20028;-67
2021/06/25 10:33:39;;;;;;;6.13;0.80;;;;;;;;;;5016876;28;20025;-68
2021/06/25 10:36:06;;;;;;;2.70;0.90;;;;;;;;;;5016232;28;20034;-67
2021/06/25 10:38:32;;;;;;;4.57;0.82;;;;;;;;;;5016951;28;20026;-67
2021/06/25 10:41:00;;;;;;;4.93;0.93;;;;;;;;;;5016163;28;20482;-68
2021/06/25 10:43:49;;;;;;;5.90;1.13;;;;;;;;;;5016195;28;20050;-68
2021/06/25 10:46:34;;;;;;;4.68;0.95;;;;;;;;;;5016118;28;20045;-68
2021/06/25 10:49:08;;;;;;;6.15;1.40;;;;;;;;;;5016278;28;20029;-67
2021/06/25 10:51:36;;;;;;;6.50;1.00;;;;;;;;;;5016313;28;20025;-67
2021/06/25 10:54:21;;;;;;;2.85;0.98;;;;;;;;;;5016332;28;20029;-67
2021/06/25 10:56:49;;;;;;;3.33;0.88;;;;;;;;;;5015911;28;20033;-67
2021/06/25 10:59:19;;;;;;;4.90;1.08;;;;;;;;;;5016166;28;20093;-67
2021/06/25 11:02:08;;;;;;;4.35;1.00;;;;;;;;;;5016220;28;20034;-67
2021/06/25 11:04:37;;;;;;;4.97;1.05;;;;;;;;;;5016093;28;20021;-68
2021/06/25 11:07:10;;;;;;;6.25;1.05;;;;;;;;;;5015787;28;20466;-68
2021/06/25 11:09:45;;;;;;;6.10;0.73;;;;;;;;;;5015805;28;20516;-69
2021/06/25 11:12:30;;;;;;;3.75;0.95;;;;;;;;;;5014387;28;20488;-67
2021/06/25 11:15:05;;;;;;;2.83;0.90;;;;;;;;;;5015774;28;20073;-67
2021/06/25 11:17:50;;;;;;;3.33;0.90;;;;;;;;;;5015641;28;20058;-67
2021/06/25 11:20:16;;;;;;;7.50;0.80;;;;;;;;;;5014909;28;20091;-67
2021/06/25 11:22:42;;;;;;;3.85;0.77;;;;;;;;;;5015308;28;20029;-67
2021/06/25 11:25:15;;;;;;;6.88;1.00;;;;;;;;;;5016063;28;20355;-67
2021/06/25 11:28:08;;;;;;;9.30;0.70;;;;;;;;;;5015640;28;20097;-67
2021/06/25 11:30:52;;;;;;;2.03;0.75;;;;;;;;;;5015596;28;20442;-67
2021/06/25 11:33:27;;;;;;;3.10;0.80;;;;;;;;;;5015615;28;20030;-67
2021/06/25 11:35:54;;;;;;;3.33;0.77;;;;;;;;;;5015394;28;20024;-66
2021/06/25 11:39:00;;;;;;;5.72;0.80;;;28.10;42.50;;;;;;5015129;28;20088;-67
2021/06/25 11:41:34;;;;;;;2.60;0.80;;;29.20;39.50;;;;;;5015278;28;20061;-67
2021/06/25 11:44:21;;;;;;;4.20;0.88;;;29.10;40.00;;;;;;5014916;28;20504;-67
2021/06/25 11:46:58;;;;;;;5.32;1.17;;;29.00;39.50;;;;;;5004547;28;20038;-67
2021/06/25 11:49:39;;;;;;;7.50;0.95;;;29.00;39.80;;;;;;5015202;28;20080;-66
2021/06/25 11:52:20;;;;;;;9.75;1.63;;;29.00;39.70;;;;;;5015023;28;20049;-67
2021/06/25 11:54:50;;;;;;;2.53;0.75;;;29.00;41.50;;;;;;5015205;28;20045;-67
2021/06/25 11:57:26;;;;;;;4.47;0.77;;;29.00;41.70;;;;;;5014889;28;20037;-67
2021/06/25 12:00:01;;;;;;;4.22;0.75;;;29.10;40.70;;;;;;5015061;28;20052;-67
2021/06/25 12:02:37;;;;;;;3.15;1.00;;;29.10;40.00;;;;;;5015018;28;20065;-67
2021/06/25 12:05:04;;;;;;;3.45;0.98;;;29.10;41.20;;;;;;5014923;28;20030;-67
2021/06/25 12:07:29;;;;;;;9.45;1.35;;;29.10;41.20;;;;;;5014549;28;20457;-67
2021/06/25 12:09:55;;;;;;;6.93;1.15;;;29.10;41.20;;;;;;5014716;28;20030;-67
2021/06/25 12:12:32;;;;;;;5.47;0.98;;;29.00;41.30;;;;;;5014577;28;20100;-67
2021/06/25 12:14:59;;;;;;;6.28;0.98;;;29.00;39.50;;;;;;5014991;28;20033;-67
2021/06/25 12:17:48;;;;;;;3.40;0.70;;;29.00;40.80;;;;;;5014500;28;20072;-67
2021/06/25 12:20:19;;;;;;;4.28;1.20;;;29.00;40.70;;;;;;5014448;28;20451;-67
2021/06/25 12:22:48;;;;;;;5.45;0.70;;;29.00;41.00;;;;;;5014498;28;20018;-67
2021/06/25 12:25:14;;;;;;;3.22;0.85;;;29.00;40.40;;;;;;5014505;28;20425;-67
2021/06/25 12:27:42;;;;;;;4.05;0.73;;;29.00;40.70;;;;;;5014615;28;20022;-67
2021/06/25 12:30:13;;;;;;;6.88;1.08;;;29.00;41.30;;;;;;5014248;28;20084;-67
2021/06/25 12:32:39;;;;;;;4.53;0.90;;;29.00;41.90;;;;;;5011907;28;20037;-67
2021/06/25 12:35:06;;;;;;;4.88;1.25;;;29.10;42.10;;;;;;5014235;28;20033;-67
2021/06/25 12:37:53;;;;;;;3.47;0.90;;;29.10;42.30;;;;;;5014219;28;20018;-67
2021/06/25 12:40:46;;;;;;;3.88;0.93;;;29.20;41.90;;;;;;5014192;28;20108;-67
2021/06/25 12:43:29;;;;;;;3.83;1.35;;;29.20;42.40;;;;;;4991720;28;20075;-67
2021/06/25 12:45:59;;;;;;;4.63;1.20;;;;;;;;;;5014011;28;20065;-67
2021/06/25 12:48:25;;;;;;;7.15;0.93;;;;;;;;;;5014024;28;20034;-67
2021/06/25 12:51:11;;;;;;;6.22;1.30;;;;;;;;;;5013889;28;20496;-68
2021/06/25 12:53:38;;;;;;;4.43;0.95;;;;;;;;;;5014146;28;20049;-67
2021/06/25 12:56:09;;;;;;;5.07;1.13;;;;;;;;;;5014054;28;20036;-67
2021/06/25 12:58:39;;;;;;;5.93;1.23;;;;;;;;;;5013905;28;20037;-67
2021/06/25 13:01:05;;;;;;;7.47;1.35;;;;;;;;;;5013928;28;20056;-67
2021/06/25 13:03:32;;;;;;;7.65;1.30;;;;;;;;;;5013714;28;20489;-67
2021/06/25 13:05:58;;;;;;;4.25;1.10;;;;;;;;;;5013810;28;20040;-67
2021/06/25 13:08:28;;;;;;;7.90;1.17;;;;;;;;;;5013864;28;20096;-67
2021/06/25 13:11:13;;;;;;;6.53;1.20;;;;;;;;;;5013522;28;20026;-67
2021/06/25 13:13:39;;;;;;;6.45;1.20;;;;;;;;;;5013211;28;20026;-67
2021/06/25 13:16:05;;;;;;;7.32;1.20;;;;;;;;;;5013676;28;20152;-67
2021/06/25 13:18:37;;;;;;;4.47;1.15;;;;;;;;;;5013712;28;20028;-66
2021/06/25 13:21:18;;;;;;;6.07;1.20;;;;;;;;;;5013522;28;20030;-67
2021/06/25 13:23:45;;;;;;;7.57;1.40;;;;;;;;;;5013653;28;20030;-67
2021/06/25 13:26:15;;;;;;;6.88;1.10;;;;;;;;;;5013213;28;20034;-67
2021/06/25 13:28:57;;;;;;;5.03;1.00;;;;;;;;;;5013463;28;20026;-67
2021/06/25 13:31:23;;;;;;;5.53;1.02;;;;;;;;;;5013546;28;20029;-68
2021/06/25 13:33:49;;;;;;;1.95;0.70;;;;;;;;;;5013289;28;20041;-67
2021/06/25 13:36:16;;;;;;;3.75;0.90;;;;;;;;;;5013245;28;20040;-67
2021/06/25 13:38:42;;;;;;;4.78;0.82;;;;;;;;;;5013609;28;20033;-67
2021/06/25 13:41:20;;;;;;;4.32;1.08;;;;;;;;;;5013583;28;20105;-67
2021/06/25 13:43:50;;;;;;;4.03;0.93;;;;;;;;;;5015227;28;20050;-67
2021/06/25 13:46:20;;;;;;;1.55;0.80;;;;;;;;;;5017328;28;20125;-67
2021/06/25 13:48:47;;;;;;;3.78;1.00;;;;;;;;;;5017381;28;20383;-67
2021/06/25 13:51:13;;;;;;;2.22;0.88;;;;;;;;;;5017337;28;20029;-67
2021/06/25 13:53:44;;;;;;;10.60;1.17;;;;;;;;;;5017110;28;20030;-67
2021/06/25 13:56:15;;;;;;;4.10;0.98;;;29.30;42.50;;;;;;5017300;28;20417;-67
2021/06/25 13:59:11;;;;;;;4.97;1.00;;;29.80;39.60;;;;;;5017121;28;20468;-67
2021/06/25 14:01:50;;;;;;;4.82;1.13;;;29.70;39.20;;;;;;5004677;28;20482;-67
2021/06/25 14:04:21;;;;;;;3.50;0.80;;;29.70;39.60;;;;;;5016957;28;20033;-68
2021/06/25 14:06:53;;;;;;;10.65;1.52;;;29.60;40.20;;;;;;5017107;28;20037;-67
2021/06/25 14:09:23;;;;;;;5.53;0.90;;;29.60;40.50;;;;;;5017224;28;20030;-67
2021/06/25 14:11:49;;;;;;;5.55;0.90;;;29.60;40.90;;;;;;5016970;28;20038;-67
2021/06/25 14:14:15;;;;;;;4.00;0.98;;;29.70;40.80;;;;;;5016901;28;20048;-66
2021/06/25 14:16:41;;;;;;;4.80;1.00;;;29.70;40.90;;;;;;5016936;28;20470;-67
2021/06/25 14:19:15;;;;;;;4.68;0.93;;;29.80;40.20;;;;;;5017045;28;20490;-67
2021/06/25 14:21:44;;;;;;;6.38;1.63;;;29.80;40.30;;;;;;5016850;28;20022;-67
2021/06/25 14:24:11;;;;;;;4.22;1.10;;;29.80;40.30;;;;;;5016505;28;20091;-67
2021/06/25 14:26:37;;;;;;;7.28;0.95;;;29.80;38.70;;;;;;5016625;28;20105;-67
2021/06/25 14:29:05;;;;;;;2.50;0.80;;;29.80;39.10;;;;;;5017131;28;20546;-67
2021/06/25 14:31:32;;;;;;;4.75;1.00;;;29.70;40.50;;;;;;5016439;28;20105;-67
2021/06/25 14:33:57;;;;;;;3.83;0.93;;;29.80;40.60;;;;;;5016613;28;20022;-67